sensor_id;sensor_type;location;lat;lon;timestamp;pressure;altitude;pressure_sealevel;temperature;humidity
63287;BME280;49410;55.708;37.522;2023-02-16T00:00:28;100320.44;;;-3.77;nan
63287;BME280;49410;55.708;37.522;2023-02-16T00:02:54;100318.91;;;-3.82;nan
63287;BME280;49410;55.708;37.522;2023-02-16T00:05:27;100332.97;;;-3.77;nan
63287;BME280;49410;55.708;37.522;2023-02-16T00:07:55;100323.50;;;-3.86;nan
63287;BME280;49410;55.708;37.522;2023-02-16T00:10:21;100332.25;;;-3.82;nan
63287;BME280;49410;55.708;37.522;2023-02-16T00:12:47;100332.88;;;-3.76;nan
63287;BME280;49410;55.708;37.522;2023-02-16T00:15:31;100317.91;;;-3.80;nan
63287;BME280;49410;55.708;37.522;2023-02-16T00:17:58;100332.88;;;-3.76;nan
63287;BME280;49410;55.708;37.522;2023-02-16T00:20:24;100306.53;;;-3.85;nan
63287;BME280;49410;55.708;37.522;2023-02-16T00:22:49;100336.22;;;-3.70;nan
63287;BME280;49410;55.708;37.522;2023-02-16T00:25:15;100317.69;;;-3.75;nan
63287;BME280;49410;55.708;37.522;2023-02-16T00:27:40;100327.47;;;-3.74;nan
63287;BME280;49410;55.708;37.522;2023-02-16T00:30:18;100322.13;;;-3.74;nan
63287;BME280;49410;55.708;37.522;2023-02-16T00:32:44;100324.88;;;-3.76;nan
63287;BME280;49410;55.708;37.522;2023-02-16T00:35:19;100325.34;;;-3.66;nan
63287;BME280;49410;55.708;37.522;2023-02-16T00:37:46;100331.50;;;-3.64;nan
63287;BME280;49410;55.708;37.522;2023-02-16T00:40:13;100317.91;;;-3.80;nan
63287;BME280;49410;55.708;37.522;2023-02-16T00:42:39;100326.06;;;-3.83;nan
63287;BME280;49410;55.708;37.522;2023-02-16T00:45:14;100307.16;;;-3.78;nan
63287;BME280;49410;55.708;37.522;2023-02-16T00:47:42;100314.09;;;-3.74;nan
63287;BME280;49410;55.708;37.522;2023-02-16T00:50:33;100321.63;;;-3.62;nan
63287;BME280;49410;55.708;37.522;2023-02-16T00:52:59;100307.63;;;-3.68;nan
63287;BME280;49410;55.708;37.522;2023-02-16T00:55:29;100303.38;;;-3.72;nan
63287;BME280;49410;55.708;37.522;2023-02-16T00:58:23;100319.94;;;-3.64;nan
63287;BME280;49410;55.708;37.522;2023-02-16T01:00:54;100307.69;;;-3.70;nan
63287;BME280;49410;55.708;37.522;2023-02-16T01:03:24;100303.28;;;-3.71;nan
63287;BME280;49410;55.708;37.522;2023-02-16T01:05:50;100315.41;;;-3.62;nan
63287;BME280;49410;55.708;37.522;2023-02-16T01:08:36;100313.66;;;-3.63;nan
63287;BME280;49410;55.708;37.522;2023-02-16T01:11:30;100292.34;;;-3.87;nan
63287;BME280;49410;55.708;37.522;2023-02-16T01:13:56;100322.28;;;-3.77;nan
63287;BME280;49410;55.708;37.522;2023-02-16T01:16:32;100305.66;;;-3.85;nan
63287;BME280;49410;55.708;37.522;2023-02-16T01:18:59;100303.16;;;-3.90;nan
63287;BME280;49410;55.708;37.522;2023-02-16T01:21:25;100316.34;;;-3.85;nan
63287;BME280;49410;55.708;37.522;2023-02-16T01:23:50;100303.34;;;-3.95;nan
63287;BME280;49410;55.708;37.522;2023-02-16T01:26:16;100322.63;;;-3.86;nan
63287;BME280;49410;55.708;37.522;2023-02-16T01:28:43;100325.63;;;-3.94;nan
63287;BME280;49410;55.708;37.522;2023-02-16T01:31:10;100312.50;;;-4.23;nan
63287;BME280;49410;55.708;37.522;2023-02-16T01:33:35;100318.75;;;-4.24;nan
63287;BME280;49410;55.708;37.522;2023-02-16T01:36:01;100326.94;;;-4.04;nan
63287;BME280;49410;55.708;37.522;2023-02-16T01:38:28;100324.06;;;-4.00;nan
63287;BME280;49410;55.708;37.522;2023-02-16T01:43:54;100324.00;;;-3.98;nan
63287;BME280;49410;55.708;37.522;2023-02-16T01:46:32;100307.16;;;-4.00;nan
63287;BME280;49410;55.708;37.522;2023-02-16T01:49:00;100320.69;;;-4.05;nan
63287;BME280;49410;55.708;37.522;2023-02-16T01:54:06;100309.72;;;-4.19;nan
63287;BME280;49410;55.708;37.522;2023-02-16T01:57:10;100309.72;;;-4.19;nan
63287;BME280;49410;55.708;37.522;2023-02-16T02:02:18;100327.84;;;-4.06;nan
63287;BME280;49410;55.708;37.522;2023-02-16T02:04:58;100315.91;;;-4.19;nan
63287;BME280;49410;55.708;37.522;2023-02-16T02:07:58;100327.03;;;-4.08;nan
63287;BME280;49410;55.708;37.522;2023-02-16T02:15:44;100322.13;;;-4.18;nan
63287;BME280;49410;55.708;37.522;2023-02-16T02:18:09;100327.13;;;-4.09;nan
63287;BME280;49410;55.708;37.522;2023-02-16T02:21:17;100337.09;;;-4.14;nan
63287;BME280;49410;55.708;37.522;2023-02-16T02:38:39;100329.22;;;-4.17;nan
63287;BME280;49410;55.708;37.522;2023-02-16T02:43:45;100338.03;;;-4.15;nan
63287;BME280;49410;55.708;37.522;2023-02-16T02:46:32;100325.38;;;-4.10;nan
63287;BME280;49410;55.708;37.522;2023-02-16T02:48:59;100316.84;;;-4.20;nan
63287;BME280;49410;55.708;37.522;2023-02-16T02:51:24;100333.59;;;-4.16;nan
63287;BME280;49410;55.708;37.522;2023-02-16T02:59:53;100332.00;;;-4.21;nan
63287;BME280;49410;55.708;37.522;2023-02-16T03:02:42;100337.25;;;-4.17;nan
63287;BME280;49410;55.708;37.522;2023-02-16T03:05:11;100347.94;;;-4.17;nan
63287;BME280;49410;55.708;37.522;2023-02-16T03:07:39;100341.81;;;-4.21;nan
63287;BME280;49410;55.708;37.522;2023-02-16T03:10:18;100339.59;;;-4.10;nan
63287;BME280;49410;55.708;37.522;2023-02-16T03:13:05;100335.34;;;-4.15;nan
63287;BME280;49410;55.708;37.522;2023-02-16T03:15:33;100337.38;;;-4.22;nan
63287;BME280;49410;55.708;37.522;2023-02-16T03:18:01;100329.78;;;-4.09;nan
63287;BME280;49410;55.708;37.522;2023-02-16T03:20:47;100324.66;;;-4.15;nan
63287;BME280;49410;55.708;37.522;2023-02-16T03:23:32;100313.50;;;-4.25;nan
63287;BME280;49410;55.708;37.522;2023-02-16T03:26:17;100312.59;;;-4.26;nan
63287;BME280;49410;55.708;37.522;2023-02-16T03:29:02;100307.25;;;-4.26;nan
63287;BME280;49410;55.708;37.522;2023-02-16T03:31:53;100315.41;;;-4.29;nan
63287;BME280;49410;55.708;37.522;2023-02-16T03:34:20;100328.44;;;-4.21;nan
63287;BME280;49410;55.708;37.522;2023-02-16T03:36:49;100307.50;;;-4.32;nan
63287;BME280;49410;55.708;37.522;2023-02-16T03:39:17;100332.41;;;-4.31;nan
63287;BME280;49410;55.708;37.522;2023-02-16T03:41:48;100311.38;;;-4.39;nan
63287;BME280;49410;55.708;37.522;2023-02-16T03:44:15;100307.94;;;-4.43;nan
63287;BME280;49410;55.708;37.522;2023-02-16T03:46:40;100320.22;;;-4.39;nan
63287;BME280;49410;55.708;37.522;2023-02-16T03:49:06;100322.34;;;-4.47;nan
63287;BME280;49410;55.708;37.522;2023-02-16T03:51:32;100323.19;;;-4.46;nan
63287;BME280;49410;55.708;37.522;2023-02-16T03:53:57;100321.13;;;-4.38;nan
63287;BME280;49410;55.708;37.522;2023-02-16T03:56:23;100315.81;;;-4.40;nan
63287;BME280;49410;55.708;37.522;2023-02-16T03:58:48;100314.22;;;-4.44;nan
63287;BME280;49410;55.708;37.522;2023-02-16T04:01:14;100310.72;;;-4.46;nan
63287;BME280;49410;55.708;37.522;2023-02-16T04:03:39;100309.06;;;-4.48;nan
63287;BME280;49410;55.708;37.522;2023-02-16T04:06:05;100307.53;;;-4.56;nan
63287;BME280;49410;55.708;37.522;2023-02-16T04:08:30;100326.50;;;-4.40;nan
63287;BME280;49410;55.708;37.522;2023-02-16T04:10:56;100307.94;;;-4.43;nan
63287;BME280;49410;55.708;37.522;2023-02-16T04:13:22;100315.41;;;-4.29;nan
63287;BME280;49410;55.708;37.522;2023-02-16T04:15:48;100304.22;;;-4.39;nan
63287;BME280;49410;55.708;37.522;2023-02-16T04:18:13;100319.38;;;-4.39;nan
63287;BME280;49410;55.708;37.522;2023-02-16T04:20:38;100321.69;;;-4.54;nan
63287;BME280;49410;55.708;37.522;2023-02-16T04:23:04;100314.41;;;-4.48;nan
63287;BME280;49410;55.708;37.522;2023-02-16T04:25:29;100305.69;;;-4.54;nan
63287;BME280;49410;55.708;37.522;2023-02-16T04:27:55;100316.91;;;-4.45;nan
63287;BME280;49410;55.708;37.522;2023-02-16T04:30:26;100305.59;;;-4.52;nan
63287;BME280;49410;55.708;37.522;2023-02-16T04:32:52;100306.19;;;-4.44;nan
63287;BME280;49410;55.708;37.522;2023-02-16T04:35:18;100319.31;;;-4.38;nan
63287;BME280;49410;55.708;37.522;2023-02-16T04:37:44;100320.88;;;-4.32;nan
63287;BME280;49410;55.708;37.522;2023-02-16T04:40:11;100305.53;;;-4.27;nan
63287;BME280;49410;55.708;37.522;2023-02-16T04:42:41;100293.91;;;-4.26;nan
63287;BME280;49410;55.708;37.522;2023-02-16T04:45:08;100282.03;;;-4.41;nan
63287;BME280;49410;55.708;37.522;2023-02-16T04:47:33;100299.31;;;-4.27;nan
63287;BME280;49410;55.708;37.522;2023-02-16T04:49:59;100298.94;;;-4.18;nan
63287;BME280;49410;55.708;37.522;2023-02-16T04:52:24;100268.81;;;-4.44;nan
63287;BME280;49410;55.708;37.522;2023-02-16T04:54:50;100307.16;;;-4.23;nan
63287;BME280;49410;55.708;37.522;2023-02-16T04:57:16;100303.28;;;-4.15;nan
63287;BME280;49410;55.708;37.522;2023-02-16T04:59:43;100303.09;;;-4.11;nan
63287;BME280;49410;55.708;37.522;2023-02-16T05:02:08;100307.34;;;-4.05;nan
63287;BME280;49410;55.708;37.522;2023-02-16T05:04:34;100306.47;;;-4.06;nan
63287;BME280;49410;55.708;37.522;2023-02-16T05:06:59;100311.81;;;-4.06;nan
63287;BME280;49410;55.708;37.522;2023-02-16T05:09:25;100315.25;;;-4.02;nan
63287;BME280;49410;55.708;37.522;2023-02-16T05:11:50;100309.88;;;-4.24;nan
63287;BME280;49410;55.708;37.522;2023-02-16T05:14:35;100305.28;;;-4.21;nan
63287;BME280;49410;55.708;37.522;2023-02-16T05:17:08;100313.22;;;-4.41;nan
63287;BME280;49410;55.708;37.522;2023-02-16T05:19:33;100301.03;;;-4.48;nan
63287;BME280;49410;55.708;37.522;2023-02-16T05:21:59;100319.44;;;-4.64;nan
63287;BME280;49410;55.708;37.522;2023-02-16T05:24:24;100326.69;;;-4.68;nan
63287;BME280;49410;55.708;37.522;2023-02-16T05:26:50;100303.13;;;-4.80;nan
63287;BME280;49410;55.708;37.522;2023-02-16T05:29:15;100324.66;;;-4.61;nan
63287;BME280;49410;55.708;37.522;2023-02-16T05:31:40;100306.19;;;-4.68;nan
63287;BME280;49410;55.708;37.522;2023-02-16T05:34:06;100325.47;;;-4.59;nan
63287;BME280;49410;55.708;37.522;2023-02-16T05:36:31;100321.47;;;-4.71;nan
63287;BME280;49410;55.708;37.522;2023-02-16T05:38:57;100318.69;;;-4.68;nan
63287;BME280;49410;55.708;37.522;2023-02-16T05:41:22;100310.81;;;-4.73;nan
63287;BME280;49410;55.708;37.522;2023-02-16T05:43:49;100322.72;;;-4.58;nan
63287;BME280;49410;55.708;37.522;2023-02-16T05:46:14;100316.25;;;-4.50;nan
63287;BME280;49410;55.708;37.522;2023-02-16T05:48:40;100326.97;;;-4.76;nan
63287;BME280;49410;55.708;37.522;2023-02-16T05:51:05;100318.97;;;-4.76;nan
63287;BME280;49410;55.708;37.522;2023-02-16T05:53:31;100315.66;;;-4.59;nan
63287;BME280;49410;55.708;37.522;2023-02-16T05:55:56;100318.97;;;-4.76;nan
63287;BME280;49410;55.708;37.522;2023-02-16T05:58:21;100318.34;;;-4.59;nan
63287;BME280;49410;55.708;37.522;2023-02-16T06:00:47;100302.06;;;-4.53;nan
63287;BME280;49410;55.708;37.522;2023-02-16T06:03:12;100321.59;;;-4.50;nan
63287;BME280;49410;55.708;37.522;2023-02-16T06:05:38;100302.38;;;-4.60;nan
63287;BME280;49410;55.708;37.522;2023-02-16T06:08:03;100324.66;;;-4.38;nan
63287;BME280;49410;55.708;37.522;2023-02-16T06:10:28;100309.06;;;-4.48;nan
63287;BME280;49410;55.708;37.522;2023-02-16T06:12:54;100328.06;;;-4.34;nan
63287;BME280;49410;55.708;37.522;2023-02-16T06:15:19;100321.44;;;-4.47;nan
63287;BME280;49410;55.708;37.522;2023-02-16T06:17:45;100321.50;;;-4.49;nan
63287;BME280;49410;55.708;37.522;2023-02-16T06:20:10;100306.31;;;-4.47;nan
63287;BME280;49410;55.708;37.522;2023-02-16T06:22:36;100306.03;;;-4.39;nan
63287;BME280;49410;55.708;37.522;2023-02-16T06:25:02;100319.72;;;-4.48;nan
63287;BME280;49410;55.708;37.522;2023-02-16T06:27:28;100293.44;;;-4.59;nan
63287;BME280;49410;55.708;37.522;2023-02-16T06:29:53;100310.66;;;-4.44;nan
63287;BME280;49410;55.708;37.522;2023-02-16T06:32:19;100316.88;;;-4.44;nan
63287;BME280;49410;55.708;37.522;2023-02-16T06:34:45;100304.09;;;-4.35;nan
63287;BME280;49410;55.708;37.522;2023-02-16T06:37:10;100313.34;;;-4.22;nan
63287;BME280;49410;55.708;37.522;2023-02-16T06:39:35;100302.91;;;-4.28;nan
63287;BME280;49410;55.708;37.522;2023-02-16T06:42:01;100308.25;;;-4.28;nan
63287;BME280;49410;55.708;37.522;2023-02-16T06:44:27;100293.91;;;-4.26;nan
63287;BME280;49410;55.708;37.522;2023-02-16T06:46:52;100312.81;;;-4.08;nan
63287;BME280;49410;55.708;37.522;2023-02-16T06:49:19;100309.34;;;-4.10;nan
63287;BME280;49410;55.708;37.522;2023-02-16T06:51:46;100300.66;;;-3.93;nan
63287;BME280;49410;55.708;37.522;2023-02-16T06:54:12;100309.78;;;-3.99;nan
63287;BME280;49410;55.708;37.522;2023-02-16T06:56:38;100313.19;;;-3.95;nan
63287;BME280;49410;55.708;37.522;2023-02-16T06:59:04;100294.97;;;-4.08;nan
63287;BME280;49410;55.708;37.522;2023-02-16T07:01:30;100312.00;;;-3.88;nan
63287;BME280;49410;55.708;37.522;2023-02-16T07:03:56;100314.88;;;-3.93;nan
63287;BME280;49410;55.708;37.522;2023-02-16T07:06:22;100306.97;;;-3.96;nan
63287;BME280;49410;55.708;37.522;2023-02-16T07:08:49;100312.69;;;-3.83;nan
63287;BME280;49410;55.708;37.522;2023-02-16T07:11:15;100305.16;;;-3.73;nan
63287;BME280;49410;55.708;37.522;2023-02-16T07:13:41;100300.63;;;-3.71;nan
63287;BME280;49410;55.708;37.522;2023-02-16T07:16:07;100304.53;;;-3.57;nan
63287;BME280;49410;55.708;37.522;2023-02-16T07:18:33;100291.78;;;-3.73;nan
63287;BME280;49410;55.708;37.522;2023-02-16T07:20:58;100300.72;;;-3.74;nan
63287;BME280;49410;55.708;37.522;2023-02-16T07:23:24;100302.38;;;-3.49;nan
63287;BME280;49410;55.708;37.522;2023-02-16T07:25:50;100298.81;;;-3.50;nan
63287;BME280;49410;55.708;37.522;2023-02-16T07:28:15;100304.25;;;-3.31;nan
63287;BME280;49410;55.708;37.522;2023-02-16T07:30:41;100289.88;;;-3.28;nan
63287;BME280;49410;55.708;37.522;2023-02-16T07:33:06;100297.16;;;-3.32;nan
63287;BME280;49410;55.708;37.522;2023-02-16T07:35:35;100283.53;;;-3.46;nan
63287;BME280;49410;55.708;37.522;2023-02-16T07:38:02;100286.59;;;-3.35;nan
63287;BME280;49410;55.708;37.522;2023-02-16T07:40:28;100295.09;;;-3.46;nan
63287;BME280;49410;55.708;37.522;2023-02-16T07:42:53;100295.75;;;-3.40;nan
63287;BME280;49410;55.708;37.522;2023-02-16T07:45:19;100299.38;;;-3.41;nan
63287;BME280;49410;55.708;37.522;2023-02-16T07:47:44;100297.28;;;-3.35;nan
63287;BME280;49410;55.708;37.522;2023-02-16T07:50:10;100286.13;;;-3.45;nan
63287;BME280;49410;55.708;37.522;2023-02-16T07:52:36;100301.97;;;-3.61;nan
63287;BME280;49410;55.708;37.522;2023-02-16T07:55:02;100295.72;;;-3.61;nan
63287;BME280;49410;55.708;37.522;2023-02-16T07:57:28;100296.97;;;-3.48;nan
63287;BME280;49410;55.708;37.522;2023-02-16T07:59:53;100299.50;;;-3.45;nan
63287;BME280;49410;55.708;37.522;2023-02-16T08:02:20;100280.56;;;-3.61;nan
63287;BME280;49410;55.708;37.522;2023-02-16T08:04:47;100288.19;;;-3.51;nan
63287;BME280;49410;55.708;37.522;2023-02-16T08:07:16;100279.38;;;-3.53;nan
63287;BME280;49410;55.708;37.522;2023-02-16T08:09:42;100271.50;;;-3.56;nan
63287;BME280;49410;55.708;37.522;2023-02-16T08:12:09;100290.28;;;-3.37;nan
63287;BME280;49410;55.708;37.522;2023-02-16T08:14:35;100281.81;;;-3.47;nan
63287;BME280;49410;55.708;37.522;2023-02-16T08:17:00;100302.16;;;-3.65;nan
63287;BME280;49410;55.708;37.522;2023-02-16T08:19:26;100280.66;;;-3.62;nan
63287;BME280;49410;55.708;37.522;2023-02-16T08:21:53;100277.63;;;-3.54;nan
63287;BME280;49410;55.708;37.522;2023-02-16T08:24:19;100276.66;;;-3.52;nan
63287;BME280;49410;55.708;37.522;2023-02-16T08:26:45;100289.81;;;-3.26;nan
63287;BME280;49410;55.708;37.522;2023-02-16T08:29:15;100291.16;;;-3.16;nan
63287;BME280;49410;55.708;37.522;2023-02-16T08:31:43;100282.66;;;-3.05;nan
63287;BME280;49410;55.708;37.522;2023-02-16T08:34:11;100288.81;;;-3.03;nan
63287;BME280;49410;55.708;37.522;2023-02-16T08:36:38;100271.03;;;-3.25;nan
63287;BME280;49410;55.708;37.522;2023-02-16T08:39:24;100281.00;;;-3.29;nan
63287;BME280;49410;55.708;37.522;2023-02-16T08:41:50;100267.41;;;-3.24;nan
63287;BME280;49410;55.708;37.522;2023-02-16T08:44:17;100267.84;;;-3.14;nan
63287;BME280;49410;55.708;37.522;2023-02-16T08:46:47;100285.78;;;-2.95;nan
63287;BME280;49410;55.708;37.522;2023-02-16T08:49:14;100278.50;;;-2.92;nan
63287;BME280;49410;55.708;37.522;2023-02-16T08:51:50;100264.44;;;-2.97;nan
63287;BME280;49410;55.708;37.522;2023-02-16T08:54:25;100278.28;;;-2.87;nan
63287;BME280;49410;55.708;37.522;2023-02-16T08:56:55;100269.25;;;-3.05;nan
63287;BME280;49410;55.708;37.522;2023-02-16T08:59:22;100263.91;;;-3.05;nan
63287;BME280;49410;55.708;37.522;2023-02-16T09:01:48;100274.00;;;-3.12;nan
63287;BME280;49410;55.708;37.522;2023-02-16T09:04:16;100285.66;;;-3.13;nan
63287;BME280;49410;55.708;37.522;2023-02-16T09:06:43;100266.19;;;-3.17;nan
63287;BME280;49410;55.708;37.522;2023-02-16T09:09:11;100273.97;;;-3.10;nan
63287;BME280;49410;55.708;37.522;2023-02-16T09:11:37;100272.25;;;-2.92;nan
63287;BME280;49410;55.708;37.522;2023-02-16T09:14:03;100271.81;;;-2.83;nan
63287;BME280;49410;55.708;37.522;2023-02-16T09:16:30;100256.84;;;-2.87;nan
63287;BME280;49410;55.708;37.522;2023-02-16T09:19:02;100258.53;;;-2.66;nan
63287;BME280;49410;55.708;37.522;2023-02-16T09:21:29;100270.84;;;-2.61;nan
63287;BME280;49410;55.708;37.522;2023-02-16T09:24:00;100247.31;;;-2.55;nan
63287;BME280;49410;55.708;37.522;2023-02-16T09:26:30;100248.97;;;-2.33;nan
63287;BME280;49410;55.708;37.522;2023-02-16T09:28:56;100259.78;;;-2.35;nan
63287;BME280;49410;55.708;37.522;2023-02-16T09:31:26;100264.91;;;-2.30;nan
63287;BME280;49410;55.708;37.522;2023-02-16T09:34:01;100241.16;;;-2.38;nan
63287;BME280;49410;55.708;37.522;2023-02-16T09:36:27;100249.81;;;-2.13;nan
63287;BME280;49410;55.708;37.522;2023-02-16T09:38:54;100257.41;;;-1.87;nan
63287;BME280;49410;55.708;37.522;2023-02-16T09:41:28;100250.31;;;-1.88;nan
63287;BME280;49410;55.708;37.522;2023-02-16T09:46:41;100255.94;;;-1.75;nan
63287;BME280;49410;55.708;37.522;2023-02-16T09:49:31;100243.25;;;-2.25;nan
63287;BME280;49410;55.708;37.522;2023-02-16T09:52:29;100261.38;;;-2.13;nan
63287;BME280;49410;55.708;37.522;2023-02-16T09:54:59;100240.03;;;-2.14;nan
63287;BME280;49410;55.708;37.522;2023-02-16T10:00:01;100242.22;;;-2.23;nan
63287;BME280;49410;55.708;37.522;2023-02-16T10:05:16;100251.78;;;-2.17;nan
63287;BME280;49410;55.708;37.522;2023-02-16T10:08:00;100254.22;;;-2.12;nan
63287;BME280;49410;55.708;37.522;2023-02-16T10:13:55;100242.47;;;-2.10;nan
63287;BME280;49410;55.708;37.522;2023-02-16T10:16:27;100232.75;;;-2.30;nan
63287;BME280;49410;55.708;37.522;2023-02-16T10:18:55;100238.97;;;-2.48;nan
63287;BME280;49410;55.708;37.522;2023-02-16T10:21:25;100242.94;;;-2.38;nan
63287;BME280;49410;55.708;37.522;2023-02-16T10:24:05;100242.44;;;-2.46;nan
63287;BME280;49410;55.708;37.522;2023-02-16T10:29:10;100236.91;;;-2.61;nan
63287;BME280;49410;55.708;37.522;2023-02-16T10:31:54;100227.47;;;-2.70;nan
63287;BME280;49410;55.708;37.522;2023-02-16T10:34:33;100224.31;;;-2.78;nan
63287;BME280;49410;55.708;37.522;2023-02-16T10:40:13;100238.75;;;-3.01;nan
63287;BME280;49410;55.708;37.522;2023-02-16T10:45:22;100238.59;;;-2.98;nan
63287;BME280;49410;55.708;37.522;2023-02-16T10:47:50;100244.44;;;-3.09;nan
63287;BME280;49410;55.708;37.522;2023-02-16T10:50:24;100224.41;;;-3.19;nan
63287;BME280;49410;55.708;37.522;2023-02-16T10:52:54;100233.28;;;-3.19;nan
63287;BME280;49410;55.708;37.522;2023-02-16T10:55:22;100229.03;;;-3.23;nan
63287;BME280;49410;55.708;37.522;2023-02-16T10:57:55;100235.03;;;-3.18;nan
63287;BME280;49410;55.708;37.522;2023-02-16T11:00:27;100218.75;;;-3.13;nan
63287;BME280;49410;55.708;37.522;2023-02-16T11:02:54;100223.22;;;-2.93;nan
63287;BME280;49410;55.708;37.522;2023-02-16T11:05:35;100238.13;;;-2.87;nan
63287;BME280;49410;55.708;37.522;2023-02-16T11:08:03;100234.72;;;-2.72;nan
63287;BME280;49410;55.708;37.522;2023-02-16T11:10:36;100236.44;;;-2.71;nan
63287;BME280;49410;55.708;37.522;2023-02-16T11:13:02;100207.72;;;-2.67;nan
63287;BME280;49410;55.708;37.522;2023-02-16T11:15:28;100229.38;;;-2.53;nan
63287;BME280;49410;55.708;37.522;2023-02-16T11:17:55;100228.69;;;-2.58;nan
63287;BME280;49410;55.708;37.522;2023-02-16T11:20:35;100234.78;;;-2.54;nan
63287;BME280;49410;55.708;37.522;2023-02-16T11:23:22;100232.31;;;-2.59;nan
63287;BME280;49410;55.708;37.522;2023-02-16T11:31:29;100228.19;;;-2.66;nan
63287;BME280;49410;55.708;37.522;2023-02-16T11:36:48;100213.28;;;-2.53;nan
63287;BME280;49410;55.708;37.522;2023-02-16T11:39:21;100205.75;;;-2.63;nan
63287;BME280;49410;55.708;37.522;2023-02-16T11:41:50;100221.03;;;-2.46;nan
63287;BME280;49410;55.708;37.522;2023-02-16T11:44:34;100213.44;;;-2.56;nan
63287;BME280;49410;55.708;37.522;2023-02-16T11:47:07;100223.50;;;-2.61;nan
63287;BME280;49410;55.708;37.522;2023-02-16T11:49:39;100201.13;;;-2.79;nan
63287;BME280;49410;55.708;37.522;2023-02-16T11:52:28;100222.72;;;-2.63;nan
63287;BME280;49410;55.708;37.522;2023-02-16T11:54:56;100199.84;;;-2.70;nan
63287;BME280;49410;55.708;37.522;2023-02-16T11:57:26;100214.22;;;-2.73;nan
63287;BME280;49410;55.708;37.522;2023-02-16T11:59:53;100204.88;;;-2.83;nan
63287;BME280;49410;55.708;37.522;2023-02-16T12:05:23;100207.13;;;-2.74;nan
63287;BME280;49410;55.708;37.522;2023-02-16T12:08:23;100205.06;;;-2.86;nan
63287;BME280;49410;55.708;37.522;2023-02-16T12:26:52;100217.19;;;-2.98;nan
63287;BME280;49410;55.708;37.522;2023-02-16T12:34:58;100218.38;;;-3.24;nan
63287;BME280;49410;55.708;37.522;2023-02-16T12:40:16;100212.78;;;-3.39;nan
63287;BME280;49410;55.708;37.522;2023-02-16T12:45:23;100210.78;;;-3.54;nan
63287;BME280;49410;55.708;37.522;2023-02-16T12:48:28;100217.81;;;-3.52;nan
63287;BME280;49410;55.708;37.522;2023-02-16T12:50:51;100220.28;;;-3.47;nan
63287;BME280;49410;55.708;37.522;2023-02-16T12:53:40;100232.72;;;-3.46;nan
63287;BME280;49410;55.708;37.522;2023-02-16T12:56:13;100227.09;;;-3.40;nan
63287;BME280;49410;55.708;37.522;2023-02-16T12:58:45;100217.03;;;-3.35;nan
63287;BME280;49410;55.708;37.522;2023-02-16T13:01:30;100215.06;;;-3.50;nan
63287;BME280;49410;55.708;37.522;2023-02-16T13:04:04;100210.56;;;-3.50;nan
63287;BME280;49410;55.708;37.522;2023-02-16T13:06:39;100225.28;;;-3.39;nan
63287;BME280;49410;55.708;37.522;2023-02-16T13:09:17;100227.09;;;-3.40;nan
63287;BME280;49410;55.708;37.522;2023-02-16T13:11:58;100231.19;;;-3.52;nan
63287;BME280;49410;55.708;37.522;2023-02-16T13:14:36;100235.44;;;-3.48;nan
63287;BME280;49410;55.708;37.522;2023-02-16T13:17:16;100218.38;;;-3.45;nan
63287;BME280;49410;55.708;37.522;2023-02-16T13:19:45;100230.91;;;-3.46;nan
63287;BME280;49410;55.708;37.522;2023-02-16T13:22:17;100221.00;;;-3.44;nan
63287;BME280;49410;55.708;37.522;2023-02-16T13:24:52;100234.63;;;-3.50;nan
63287;BME280;49410;55.708;37.522;2023-02-16T13:45:43;100210.50;;;-3.28;nan
63287;BME280;49410;55.708;37.522;2023-02-16T13:48:25;100219.41;;;-3.48;nan
63287;BME280;49410;55.708;37.522;2023-02-16T13:50:56;100218.19;;;-3.40;nan
63287;BME280;49410;55.708;37.522;2023-02-16T13:53:22;100222.41;;;-3.55;nan
63287;BME280;49410;55.708;37.522;2023-02-16T13:55:48;100177.91;;;-3.77;nan
63287;BME280;49410;55.708;37.522;2023-02-16T14:05:50;100217.84;;;-3.74;nan
63287;BME280;49410;55.708;37.522;2023-02-16T14:08:25;100223.34;;;-3.77;nan
63287;BME280;49410;55.708;37.522;2023-02-16T14:10:57;100205.41;;;-3.96;nan
63287;BME280;49410;55.708;37.522;2023-02-16T14:13:27;100221.34;;;-3.72;nan
63287;BME280;49410;55.708;37.522;2023-02-16T14:15:55;100210.25;;;-3.83;nan
63287;BME280;49410;55.708;37.522;2023-02-16T14:21:14;100214.84;;;-3.66;nan
63287;BME280;49410;55.708;37.522;2023-02-16T14:23:41;100215.25;;;-3.76;nan
63287;BME280;49410;55.708;37.522;2023-02-16T14:26:07;100223.63;;;-3.63;nan
63287;BME280;49410;55.708;37.522;2023-02-16T14:31:00;100225.97;;;-3.55;nan
63287;BME280;49410;55.708;37.522;2023-02-16T14:33:41;100222.47;;;-3.57;nan
63287;BME280;49410;55.708;37.522;2023-02-16T14:36:15;100226.16;;;-3.60;nan
63287;BME280;49410;55.708;37.522;2023-02-16T14:41:28;100225.47;;;-3.65;nan
63287;BME280;49410;55.708;37.522;2023-02-16T14:44:08;100222.78;;;-3.85;nan
63287;BME280;49410;55.708;37.522;2023-02-16T14:47:13;100228.50;;;-3.72;nan
63287;BME280;49410;55.708;37.522;2023-02-16T14:58:53;100228.81;;;-3.80;nan
63287;BME280;49410;55.708;37.522;2023-02-16T15:01:21;100227.56;;;-3.92;nan
63287;BME280;49410;55.708;37.522;2023-02-16T15:03:54;100222.59;;;-3.81;nan
63287;BME280;49410;55.708;37.522;2023-02-16T15:06:33;100212.75;;;-4.01;nan
63287;BME280;49410;55.708;37.522;2023-02-16T15:09:14;100225.63;;;-3.88;nan
63287;BME280;49410;55.708;37.522;2023-02-16T15:11:52;100212.66;;;-3.98;nan
63287;BME280;49410;55.708;37.522;2023-02-16T15:14:50;100230.97;;;-3.88;nan
63287;BME280;49410;55.708;37.522;2023-02-16T15:22:35;100228.47;;;-3.93;nan
63287;BME280;49410;55.708;37.522;2023-02-16T15:25:23;100227.06;;;-4.02;nan
63287;BME280;49410;55.708;37.522;2023-02-16T15:27:58;100233.22;;;-4.00;nan
63287;BME280;49410;55.708;37.522;2023-02-16T15:30:30;100227.06;;;-4.02;nan
63287;BME280;49410;55.708;37.522;2023-02-16T15:32:59;100227.13;;;-4.03;nan
63287;BME280;49410;55.708;37.522;2023-02-16T15:35:33;100238.75;;;-4.04;nan
63287;BME280;49410;55.708;37.522;2023-02-16T15:38:22;100229.84;;;-4.05;nan
63287;BME280;49410;55.708;37.522;2023-02-16T15:40:53;100227.88;;;-4.00;nan